Time;durP1;ratioP1;P1;durP2;ratioP2;P2;SDS_P1;SDS_P2;PMS_P1;PMS_P2;Temp;Humidity;BMP_temperature;BMP_pressure;BME280_temperature;BME280_humidity;BME280_pressure;Samples;Min_cycle;Max_cycle;Signal;HPM_P1;HPM_P2
2023/10/17 00:00:34;;;;;;;2.70;2.15;;;;;;;5.05;100.00;101603.47;5072040;28;20208;-66
2023/10/17 00:03:04;;;;;;;5.72;2.85;;;;;;;5.08;100.00;101602.34;5067585;28;20216;-67
2023/10/17 00:05:33;;;;;;;1.95;1.75;;;;;;;5.07;100.00;101595.28;5072027;28;20278;-68
2023/10/17 00:08:05;;;;;;;5.35;4.45;;;;;;;5.15;100.00;101598.06;5063227;28;20192;-68
2023/10/17 00:10:40;;;;;;;2.75;2.50;;;;;;;5.24;100.00;101600.69;5060954;28;20287;-68
2023/10/17 00:13:25;;;;;;;3.50;2.70;;;;;;;5.33;100.00;101595.41;5077884;28;20225;-68
2023/10/17 00:15:53;;;;;;;3.63;2.95;;;;;;;5.44;100.00;101596.03;5074016;28;20259;-68
2023/10/17 00:18:25;;;;;;;3.33;3.03;;;;;;;5.54;100.00;101594.13;5066100;28;20594;-69
2023/10/17 00:21:02;;;;;;;8.88;3.45;;;;;;;5.71;100.00;101595.16;5069770;28;20222;-70
2023/10/17 00:23:34;;;;;;;2.88;2.67;;;;;;;5.76;100.00;101592.00;5063492;28;20228;-68
2023/10/17 00:26:04;;;;;;;3.97;3.60;;;;;;;5.94;100.00;101590.16;5071641;28;20188;-70
2023/10/17 00:28:33;;;;;;;4.05;3.22;;;;;;;5.86;100.00;101593.56;5068979;28;20193;-69
2023/10/17 00:31:04;;;;;;;2.58;2.38;;;;;;;5.84;100.00;101584.84;5062914;28;20180;-67
2023/10/17 00:33:37;;;;;;;3.35;2.65;;;;;;;5.88;100.00;101590.78;5066183;28;20239;-69
2023/10/17 00:36:06;;;;;;;4.78;3.30;;;;;;;6.01;100.00;101585.84;5049234;28;20290;-69
2023/10/17 00:38:42;;;;;;;3.17;1.98;;;;;;;6.06;100.00;101588.91;5067415;28;20173;-68
2023/10/17 00:41:18;;;;;;;3.60;2.33;;;;;;;6.16;100.00;101592.34;5066207;28;20191;-68
2023/10/17 00:43:47;;;;;;;3.00;2.70;;;;;;;6.17;100.00;101587.81;5076701;28;20681;-67
2023/10/17 00:46:16;;;;;;;3.70;2.30;;;;;;;6.14;100.00;101583.63;5055563;28;20199;-69
2023/10/17 00:49:04;;;;;;;2.50;1.90;;;;;;;6.27;100.00;101583.19;5045533;28;20200;-68
2023/10/17 00:51:33;;;;;;;1.50;1.40;;;;;;;6.25;100.00;101587.88;5046678;28;20189;-67
2023/10/17 00:54:03;;;;;;;3.17;1.92;;;;;;;6.32;100.00;101584.41;5055068;28;20287;-69
2023/10/17 00:56:37;;;;;;;3.75;2.50;;;;;;;6.20;100.00;101584.81;5054500;28;20188;-67
2023/10/17 00:59:08;;;;;;;4.60;2.13;;;;;;;6.16;100.00;101583.44;5050152;28;20192;-67
2023/10/17 01:01:37;;;;;;;2.00;1.85;;;;;;;6.28;100.00;101585.72;5071031;28;20211;-71
2023/10/17 01:04:06;;;;;;;2.60;2.00;;;;;;;6.41;100.00;101578.06;5075419;28;20218;-67
2023/10/17 01:06:37;;;;;;;2.33;1.88;;;;;;;6.46;100.00;101581.13;5062959;28;20198;-68
2023/10/17 01:09:17;;;;;;;3.47;2.38;;;;;;;6.48;100.00;101570.22;5065918;28;20271;-69
2023/10/17 01:11:47;;;;;;;2.40;2.20;;;;;;;6.37;100.00;101582.09;5077806;28;20242;-70
2023/10/17 01:14:18;;;;;;;5.53;3.10;;;;;;;6.65;100.00;101576.53;5072272;28;20227;-68
2023/10/17 01:16:51;;;;;;;4.97;2.42;;;;;;;6.59;100.00;101578.00;5054273;28;20188;-69
2023/10/17 01:19:21;;;;;;;4.00;3.33;;;;;;;6.40;100.00;101576.38;5067604;28;20198;-68
2023/10/17 01:21:50;;;;;;;5.35;2.47;;;;;;;6.53;100.00;101575.97;5056320;28;20298;-68
2023/10/17 01:24:20;;;;;;;3.67;2.35;;;;;;;6.63;100.00;101578.56;5070487;28;20251;-68
2023/10/17 01:26:49;;;;;;;2.75;2.55;;;;;;;6.59;100.00;101564.56;5050281;28;20283;-67
2023/10/17 01:29:21;;;;;;;19.40;2.80;;;;;;;6.60;100.00;101570.78;5065620;28;20187;-68
2023/10/17 01:31:50;;;;;;;5.85;2.17;;;;;;;6.73;100.00;101577.41;5067501;28;20211;-68
2023/10/17 01:34:21;;;;;;;3.35;2.30;;;;;;;6.50;100.00;101568.22;5058457;28;20243;-68
2023/10/17 01:36:50;;;;;;;19.35;3.35;;;;;;;6.53;100.00;101568.72;5067619;28;20196;-70
2023/10/17 01:39:21;;;;;;;6.28;1.77;;;;;;;6.66;100.00;101570.16;5076878;28;20662;-67
2023/10/17 01:41:50;;;;;;;2.65;2.00;;;;;;;6.70;100.00;101577.72;5052277;28;20580;-69
2023/10/17 01:44:19;;;;;;;4.18;2.97;;;;;;;6.76;100.00;101569.03;5064836;28;20193;-69
2023/10/17 01:46:49;;;;;;;6.47;3.05;;;;;;;6.58;100.00;101559.34;5070884;28;20196;-68
2023/10/17 01:49:19;;;;;;;4.78;2.20;;;;;;;6.57;100.00;101563.03;5055918;28;20195;-68
2023/10/17 01:51:49;;;;;;;3.35;2.22;;;;;;;6.68;100.00;101570.84;5086857;28;20698;-68
2023/10/17 01:54:18;;;;;;;3.70;2.17;;;;;;;6.42;100.00;101568.16;5047686;28;20213;-67
2023/10/17 01:56:50;;;;;;;2.83;2.35;;;;;;;6.47;100.00;101566.69;5075584;28;20217;-69
2023/10/17 01:59:25;;;;;;;3.50;3.10;;;;;;;6.41;100.00;101561.94;5067555;28;20184;-69
2023/10/17 02:01:59;;;;;;;5.35;3.20;;;;;;;6.47;100.00;101565.84;5054966;28;20211;-69
2023/10/17 02:04:29;;;;;;;4.60;2.25;;;;;;;6.59;100.00;101569.94;5076147;28;20262;-68
2023/10/17 02:06:59;;;;;;;3.10;1.48;;;;;;;6.48;100.00;101557.63;5075931;28;20187;-69
2023/10/17 02:09:44;;;;;;;1.35;1.25;;;;;;;6.58;100.00;101562.06;5073735;28;20192;-67
2023/10/17 02:12:16;;;;;;;6.53;1.48;;;;;;;6.83;100.00;101566.53;5070009;28;20599;-67
2023/10/17 02:14:45;;;;;;;9.00;2.38;;;;;;;6.76;100.00;101558.28;5071579;28;20365;-68
2023/10/17 02:21:28;;;;;;;2.65;1.85;;;;;;;6.91;100.00;101566.56;5076907;28;20203;-68
2023/10/17 02:23:57;;;;;;;2.88;2.58;;;;;;;6.71;100.00;101559.75;5069946;28;20184;-68
2023/10/17 02:26:28;;;;;;;3.33;1.88;;;;;;;7.01;100.00;101569.97;5054990;28;20196;-69
2023/10/17 02:29:04;;;;;;;5.30;2.30;;;;;;;6.85;100.00;101564.53;5070014;28;20297;-69
2023/10/17 02:31:33;;;;;;;2.38;1.75;;;;;;;6.74;100.00;101557.56;5072057;28;20188;-69
2023/10/17 02:34:02;;;;;;;2.80;1.70;;;;;;;7.01;100.00;101564.59;5075663;28;20208;-67
2023/10/17 02:36:31;;;;;;;4.22;2.40;;;;;;;6.95;100.00;101565.25;5050234;28;20200;-67
2023/10/17 02:39:00;;;;;;;3.97;3.58;;;;;;;6.96;100.00;101561.56;5075557;28;20191;-66
2023/10/17 02:41:31;;;;;;;2.08;1.88;;;;;;;6.81;100.00;101565.84;5064573;28;20201;-67
2023/10/17 02:44:04;;;;;;;1.90;0.95;;;;;;;6.74;100.00;101565.66;5050849;28;20196;-68
2023/10/17 02:46:33;;;;;;;3.13;2.05;;;;;;;7.00;100.00;101573.66;5068317;28;20248;-69
2023/10/17 02:49:07;;;;;;;2.30;1.80;;;;;;;7.17;100.00;101574.56;5073193;28;20184;-67
2023/10/17 02:51:38;;;;;;;4.47;2.40;;;;;;;6.99;100.00;101574.66;5070047;28;20630;-68
2023/10/17 02:54:12;;;;;;;2.10;1.35;;;;;;;7.12;100.00;101580.44;5068286;28;20260;-68
2023/10/17 02:56:51;;;;;;;4.25;1.83;;;;;;;7.15;100.00;101572.03;5078136;28;20215;-69
2023/10/17 02:59:23;;;;;;;4.70;1.45;;;;;;;6.92;100.00;101576.34;5071693;28;20215;-68
2023/10/17 03:01:55;;;;;;;3.47;2.47;;;;;;;6.99;100.00;101577.34;5054671;28;20215;-68
2023/10/17 03:04:27;;;;;;;8.60;2.50;;;;;;;6.97;100.00;101574.81;5050919;28;20192;-68
2023/10/17 03:06:58;;;;;;;2.10;1.15;;;;;;;7.18;100.00;101574.41;5051447;28;20294;-67
2023/10/17 03:12:23;;;;;;;3.35;1.70;;;;;;;6.95;100.00;101571.47;5065771;28;20228;-66
2023/10/17 03:17:39;;;;;;;2.83;1.95;;;;;;;7.20;100.00;101575.09;5073380;28;20234;-68
2023/10/17 03:20:10;;;;;;;1.90;1.70;;;;;;;6.94;100.00;101574.31;5057250;28;20199;-69
2023/10/17 03:22:39;;;;;;;3.08;2.33;;;;;;;6.98;100.00;101573.81;5073742;28;20294;-68
2023/10/17 03:25:18;;;;;;;5.43;2.03;;;;;;;7.12;100.00;101575.03;5047637;28;20511;-68
2023/10/17 03:27:50;;;;;;;2.80;1.50;;;;;;;7.13;100.00;101570.50;5077823;28;20245;-68
2023/10/17 03:30:21;;;;;;;4.32;2.85;;;;;;;7.02;100.00;101566.25;5050187;28;20632;-68
2023/10/17 03:33:06;;;;;;;2.60;2.40;;;;;;;6.98;100.00;101570.28;5069685;28;20244;-68
2023/10/17 03:35:46;;;;;;;1.88;1.20;;;;;;;7.00;100.00;101562.91;5066206;28;20642;-67
2023/10/17 03:38:16;;;;;;;2.20;1.30;;;;;;;6.89;100.00;101568.56;5055654;28;20187;-67
2023/10/17 03:40:53;;;;;;;2.67;1.65;;;;;;;6.86;100.00;101567.06;5074330;28;20188;-68
2023/10/17 03:43:27;;;;;;;2.17;1.65;;;;;;;7.14;100.00;101570.34;5065317;28;20584;-68
2023/10/17 03:46:03;;;;;;;1.80;1.30;;;;;;;7.08;100.00;101564.78;5070419;28;20183;-68
2023/10/17 03:48:36;;;;;;;3.25;1.40;;;;;;;7.03;100.00;101576.03;5062718;28;20789;-68
2023/10/17 03:51:10;;;;;;;2.05;1.80;;;;;;;6.92;100.00;101570.97;5067043;28;20223;-68
2023/10/17 03:53:47;;;;;;;2.13;1.38;;;;;;;6.90;100.00;101572.94;5066793;28;20216;-67
2023/10/17 03:56:25;;;;;;;1.98;1.73;;;;;;;6.82;100.00;101572.94;5075877;28;20207;-68
2023/10/17 03:59:16;;;;;;;4.50;2.28;;;;;;;6.66;100.00;101570.16;5051802;28;20188;-68
2023/10/17 04:01:48;;;;;;;2.85;2.08;;;;;;;6.62;100.00;101574.16;5069163;28;20216;-68
2023/10/17 04:04:18;;;;;;;1.60;1.27;;;;;;;6.74;100.00;101575.56;5075278;28;20238;-69
2023/10/17 04:06:51;;;;;;;2.10;1.88;;;;;;;6.76;100.00;101570.88;5070086;28;20185;-68
2023/10/17 04:09:26;;;;;;;2.40;1.55;;;;;;;6.98;100.00;101578.34;5068553;28;20222;-68
2023/10/17 04:11:58;;;;;;;2.80;1.70;;;;;;;6.92;100.00;101576.34;5072600;28;20211;-69
2023/10/17 04:14:33;;;;;;;4.00;3.28;;;;;;;6.80;100.00;101572.22;5074049;28;20199;-69
2023/10/17 04:17:05;;;;;;;3.30;2.28;;;;;;;6.94;100.00;101580.53;5067697;28;20210;-69
2023/10/17 04:19:39;;;;;;;1.15;1.05;;;;;;;6.83;100.00;101577.28;5059463;28;20288;-67
2023/10/17 04:22:14;;;;;;;2.38;1.50;;;;;;;6.81;100.00;101573.94;5066860;28;20782;-68
2023/10/17 04:24:51;;;;;;;3.45;2.50;;;;;;;6.77;100.00;101577.94;5071308;28;20180;-69
2023/10/17 04:27:22;;;;;;;3.00;1.63;;;;;;;7.04;100.00;101579.56;5070578;28;20697;-68
2023/10/17 04:29:52;;;;;;;2.92;1.85;;;;;;;7.02;100.00;101590.47;5071748;28;20194;-68
2023/10/17 04:32:26;;;;;;;4.05;2.75;;;;;;;6.99;100.00;101582.75;5070809;28;20207;-68
2023/10/17 04:34:55;;;;;;;2.08;1.77;;;;;;;6.96;100.00;101573.16;5068829;28;20560;-69
2023/10/17 04:37:32;;;;;;;2.08;1.88;;;;;;;6.94;100.00;101585.06;5077428;28;20188;-69
2023/10/17 04:43:24;;;;;;;3.22;2.10;;;;;;;7.25;100.00;101591.59;5070563;28;20559;-68
2023/10/17 04:45:48;;;;;;;7.03;2.58;;;;;;;7.15;100.00;101590.88;5065260;28;20717;-67
2023/10/17 04:48:32;;;;;;;4.05;2.45;;;;;;;7.06;100.00;101589.19;5077633;28;20193;-67
2023/10/17 04:51:20;;;;;;;4.25;1.70;;;;;;;6.94;100.00;101590.47;5069103;28;20665;-66
2023/10/17 04:53:50;;;;;;;2.47;1.90;;;;;;;7.10;100.00;101584.31;5075483;28;20740;-67
2023/10/17 04:56:22;;;;;;;3.05;2.75;;;;;;;7.25;100.00;101588.06;5069540;28;20278;-69
2023/10/17 04:58:54;;;;;;;1.90;1.70;;;;;;;7.08;100.00;101580.91;5079563;28;20211;-68
2023/10/17 05:01:35;;;;;;;2.38;1.98;;;;;;;6.97;100.00;101584.78;5062896;28;20600;-69
2023/10/17 05:04:31;;;;;;;2.83;1.85;;;;;;;7.23;100.00;101593.59;5076146;28;20352;-68
2023/10/17 05:07:16;;;;;;;2.33;1.85;;;;;;;7.17;100.00;101585.31;5068907;28;20788;-67
2023/10/17 06:17:27;;;;;;;2.50;1.42;;;;;;;7.99;100.00;101644.59;5071605;28;20678;-68
2023/10/17 06:19:58;;;;;;;2.50;1.85;;;;;;;7.94;100.00;101641.53;5065723;28;20205;-69
2023/10/17 06:23:23;;;;;;;2.97;2.15;;;;;;;8.22;100.00;101651.03;5061595;28;20212;-68
2023/10/17 06:28:28;;;;;;;3.55;2.45;;;;;;;8.30;100.00;101650.19;4995878;28;20195;-69
2023/10/17 06:34:00;;;;;;;5.40;2.35;;;;;;;8.30;100.00;101650.19;5046299;28;20717;-65
2023/10/17 06:36:28;;;;;;;4.30;2.80;;;;;;;8.70;100.00;101649.31;5057155;28;20294;-69
2023/10/17 06:38:58;;;;;;;2.40;1.80;;;;;;;8.71;100.00;101653.72;5076677;28;20621;-67
2023/10/17 06:41:30;;;;;;;5.28;2.50;;;;;;;8.47;100.00;101651.84;5074703;28;20202;-69
2023/10/17 06:44:05;;;;;;;3.45;2.05;;;;;;;8.33;100.00;101655.25;5079483;28;20202;-66
2023/10/17 06:46:48;;;;;;;2.90;2.63;;;;;;;8.62;100.00;101662.81;5066367;28;20199;-67
2023/10/17 06:49:30;;;;;;;2.35;1.75;;;;;;;8.47;100.00;101668.03;5067164;28;20199;-68
2023/10/17 06:52:18;;;;;;;1.90;1.80;;;;;;;8.56;100.00;101663.50;5071335;28;20212;-68
2023/10/17 06:54:50;;;;;;;3.78;2.15;;;;;;;8.57;100.00;101657.06;5063121;28;20197;-68
2023/10/17 06:57:20;;;;;;;3.03;2.72;;;;;;;8.55;100.00;101659.13;5069064;28;20215;-68
2023/10/17 06:59:51;;;;;;;9.25;2.85;;;;;;;8.57;100.00;101655.22;5058565;28;20184;-68
2023/10/17 07:02:27;;;;;;;4.30;2.42;;;;;;;8.86;100.00;101667.34;5070803;28;20235;-67
2023/10/17 07:05:00;;;;;;;4.35;2.60;;;;;;;8.94;100.00;101678.97;5074176;28;20183;-68
2023/10/17 07:07:39;;;;;;;7.78;3.53;;;;;;;8.74;100.00;101674.94;5071585;28;20180;-69
2023/10/17 07:10:17;;;;;;;2.78;2.15;;;;;;;8.70;100.00;101676.31;5060990;28;20783;-68
2023/10/17 07:12:50;;;;;;;7.55;1.60;;;;;;;8.90;100.00;101677.63;5057903;28;20570;-68
2023/10/17 07:15:25;;;;;;;5.00;2.83;;;;;;;9.04;100.00;101676.91;5074685;28;20643;-69
2023/10/17 07:18:39;;;;;;;2.63;1.70;;;;;;;8.96;100.00;101679.59;5069934;28;20192;-67
2023/10/17 07:23:32;;;;;;;5.00;3.38;;;;;;;9.13;100.00;101675.88;5077020;28;20212;-68
2023/10/17 07:26:01;;;;;;;3.95;3.20;;;;;;;9.32;99.71;101687.28;5080947;28;20231;-67
2023/10/17 07:28:30;;;;;;;4.22;3.03;;;;;;;9.27;99.60;101684.25;5074967;28;20283;-67
2023/10/17 07:31:01;;;;;;;4.95;1.85;;;;;;;9.33;100.00;101678.16;5059429;28;20189;-69
2023/10/17 07:33:32;;;;;;;4.22;3.83;;;;;;;9.37;99.67;101684.88;5068944;28;20578;-68
2023/10/17 07:36:03;;;;;;;3.65;2.33;;;;;;;9.56;99.77;101677.19;5071842;28;20227;-67
2023/10/17 07:38:33;;;;;;;4.25;2.13;;;;;;;9.85;98.07;101681.94;5073034;28;20211;-70
2023/10/17 07:41:12;;;;;;;4.75;2.58;;;;;;;10.25;94.94;101685.41;5070509;28;20221;-68
2023/10/17 07:43:44;;;;;;;3.25;2.00;;;;;;;10.20;93.88;101674.28;5076917;28;20293;-69
2023/10/17 07:46:18;;;;;;;2.33;2.03;;;;;;;9.99;94.67;101670.34;5080024;28;20189;-67
2023/10/17 07:48:49;;;;;;;5.22;4.68;;;;;;;10.34;94.36;101670.81;5079701;28;20244;-68
2023/10/17 07:51:22;;;;;;;11.20;3.07;;;;;;;10.36;92.71;101666.88;5067353;28;20211;-67
2023/10/17 07:53:53;;;;;;;8.15;4.45;;;;;;;10.21;93.46;101659.75;5070447;28;20941;-69
2023/10/17 07:56:24;;;;;;;7.83;3.83;;;;;;;10.51;93.59;101661.50;5064298;28;20692;-67
2023/10/17 07:59:04;;;;;;;8.03;3.10;;;;;;;10.67;92.01;101666.78;5076874;28;20427;-68
2023/10/17 08:01:41;;;;;;;4.63;3.13;;;;;;;11.12;89.87;101667.66;5062337;28;20818;-70
2023/10/17 08:04:17;;;;;;;6.63;3.47;;;;;;;11.39;85.96;101671.56;5067918;28;20410;-69
2023/10/17 08:06:50;;;;;;;3.70;2.83;;;;;;;11.45;85.68;101677.06;5084810;28;20420;-68
2023/10/17 08:09:24;;;;;;;8.07;4.30;;;;;;;11.39;86.25;101669.69;5099758;28;20497;-69
2023/10/17 08:12:08;;;;;;;4.47;2.57;;;;;;;11.73;82.12;101674.50;5093852;28;20488;-68
2023/10/17 08:14:41;;;;;;;3.83;2.40;;;;;;;11.44;82.57;101675.38;5097544;28;20445;-67
2023/10/17 08:17:14;;;;;;;7.00;2.77;;;;;;;11.62;82.01;101680.38;5092285;28;20860;-70
2023/10/17 08:22:53;;;;;;;3.93;3.10;;;;;;;12.07;77.95;101668.41;5080295;28;20435;-68
2023/10/17 08:25:25;;;;;;;2.60;1.97;;;;;;;12.33;70.48;101674.13;5089912;28;20835;-68
2023/10/17 08:27:56;;;;;;;3.50;2.07;;;;;;;12.40;69.54;101676.88;5100462;28;20418;-68
2023/10/17 08:30:27;;;;;;;3.10;1.83;;;;;;;12.53;68.88;101680.56;5070337;28;20499;-69
2023/10/17 08:33:15;;;;;;;6.63;3.00;;;;;;;12.70;70.13;101678.38;5083299;28;20450;-68
2023/10/17 08:35:51;;;;;;;1.93;1.63;;;;;;;12.60;70.37;101676.00;5076639;28;20408;-68
2023/10/17 08:38:20;;;;;;;3.23;2.87;;;;;;;12.57;71.79;101678.28;5093317;28;20956;-68
2023/10/17 08:40:54;;;;;;;3.60;3.30;;;;;;;12.55;69.90;101672.22;5098040;28;20928;-70
2023/10/17 08:43:23;;;;;;;3.23;2.07;;;;;;;12.45;69.17;101675.25;5098797;28;20427;-68
2023/10/17 08:45:54;;;;;;;2.43;1.87;;;;;;;12.42;67.32;101675.66;5096427;28;20482;-67
2023/10/17 08:48:26;;;;;;;2.70;2.50;;;;;;;12.53;66.62;101683.28;5103609;28;20503;-68
2023/10/17 08:50:57;;;;;;;3.40;2.00;;;;;;;12.62;67.52;101686.69;5092955;28;20435;-68
2023/10/17 08:53:30;;;;;;;2.97;2.10;;;;;;;12.27;65.85;101677.59;5086600;28;20449;-69
2023/10/17 08:55:59;;;;;;;2.40;1.33;;;;;;;12.17;64.34;101682.50;5090330;28;20481;-69
2023/10/17 08:58:32;;;;;;;1.60;1.30;;;;;;;11.93;64.22;101680.16;5088236;28;20548;-68
2023/10/17 09:01:10;;;;;;;3.70;1.37;;;;;;;12.09;62.31;101680.78;5097807;28;20440;-68
2023/10/17 09:03:44;;;;;;;3.97;2.23;;;;;;;12.17;61.58;101677.09;5087636;28;20449;-67
2023/10/17 09:06:32;;;;;;;1.30;0.97;;;;;;;12.09;52.56;101683.50;5087851;28;20506;-67
2023/10/17 09:09:18;;;;;;;3.33;1.07;;;;;;;12.25;50.81;101678.84;5086622;28;20457;-67
2023/10/17 09:14:43;;;;;;;4.30;1.43;;;;;;;11.98;55.75;101677.72;5094990;28;20420;-67
2023/10/17 09:17:16;;;;;;;1.67;1.07;;;;;;;12.13;56.72;101675.78;5088180;28;20983;-67
2023/10/17 09:19:50;;;;;;;1.00;0.67;;;;;;;12.12;52.49;101674.09;5077013;28;20438;-68
2023/10/17 09:22:38;;;;;;;1.40;0.70;;;;;;;12.42;53.84;101675.66;5093960;28;20515;-69
2023/10/17 09:25:19;;;;;;;2.30;1.00;;;;;;;12.34;50.49;101675.81;5084089;28;20797;-67
2023/10/17 09:27:52;;;;;;;4.13;0.60;;;;;;;12.44;48.42;101676.28;5088052;28;20397;-68
2023/10/17 09:30:26;;;;;;;1.70;1.00;;;;;;;12.32;52.40;101675.16;5086578;28;20438;-70
2023/10/17 09:32:55;;;;;;;3.33;1.07;;;;;;;12.29;55.38;101675.56;5088146;28;20490;-68
2023/10/17 09:35:26;;;;;;;5.10;1.40;;;;;;;11.72;55.39;101672.78;5090549;28;20487;-71
2023/10/17 09:37:56;;;;;;;2.13;1.80;;;;;;;11.86;56.85;101663.00;5094823;28;20436;-69
2023/10/17 09:40:27;;;;;;;1.50;1.33;;;;;;;12.10;58.77;101665.34;5091528;28;20534;-68
2023/10/17 09:42:57;;;;;;;3.67;1.93;;;;;;;11.87;55.88;101667.38;5096669;28;20471;-67
2023/10/17 09:45:33;;;;;;;3.33;1.77;;;;;;;11.98;53.02;101673.13;5085581;28;20514;-68
2023/10/17 09:48:08;;;;;;;4.57;2.23;;;;;;;12.04;53.31;101674.25;5088399;28;20482;-69
2023/10/17 09:50:39;;;;;;;3.93;1.53;;;;;;;12.22;53.84;101673.78;5084163;28;20452;-68
2023/10/17 09:53:16;;;;;;;2.63;1.33;;;;;;;12.32;51.54;101677.84;5077643;28;20952;-66
2023/10/17 09:55:48;;;;;;;1.30;0.70;;;;;;;12.30;49.06;101677.19;5084477;28;20963;-67
2023/10/17 09:58:24;;;;;;;1.13;0.60;;;;;;;12.40;49.59;101676.88;5093718;28;20550;-68
2023/10/17 10:00:56;;;;;;;1.00;0.70;;;;;;;12.40;47.85;101672.28;5101700;28;20437;-70
2023/10/17 10:03:28;;;;;;;4.80;0.70;;;;;;;12.46;49.21;101674.22;5088363;28;20431;-69
2023/10/17 10:06:22;;;;;;;1.00;0.63;;;;;;;12.44;47.48;101673.56;5077962;28;20447;-68
2023/10/17 10:08:57;;;;;;;0.80;0.40;;;;;;;12.51;47.87;101668.22;5090943;28;20413;-69
2023/10/17 10:11:55;;;;;;;1.20;0.50;;;;;;;12.32;46.30;101664.28;5091715;28;20459;-69
2023/10/17 10:14:44;;;;;;;1.40;0.70;;;;;;;12.01;49.07;101652.91;5096723;28;20422;-68
2023/10/17 10:17:15;;;;;;;0.97;0.70;;;;;;;11.83;47.54;101650.66;5095018;28;20833;-68
2023/10/17 10:20:00;;;;;;;0.90;0.60;;;;;;;11.80;47.97;101656.47;5096823;28;20472;-69
2023/10/17 10:22:56;;;;;;;0.90;0.60;;;;;;;12.09;48.29;101645.50;5093305;28;20536;-68
2023/10/17 10:25:26;;;;;;;0.80;0.50;;;;;;;12.14;47.95;101644.91;5093541;28;20433;-69
2023/10/17 10:28:29;;;;;;;1.77;0.53;;;;;;;12.03;47.99;101631.88;5092794;28;20432;-69
2023/10/17 10:30:58;;;;;;;5.80;0.90;;;;;;;11.98;48.23;101640.59;5095963;28;21054;-68
2023/10/17 10:33:30;;;;;;;4.00;0.83;;;;;;;12.03;49.95;101642.72;5088538;28;20793;-69
2023/10/17 10:36:01;;;;;;;1.87;1.10;;;;;;;11.92;48.24;101635.94;5088893;28;20451;-69
2023/10/17 10:38:31;;;;;;;0.80;0.50;;;;;;;12.03;48.12;101634.56;5083464;28;20633;-69
2023/10/17 10:41:08;;;;;;;1.20;0.70;;;;;;;11.93;47.47;101634.06;5086804;28;20449;-67
2023/10/17 10:43:37;;;;;;;1.17;0.63;;;;;;;11.93;47.75;101629.47;5065118;28;20477;-66
2023/10/17 10:46:06;;;;;;;0.90;0.50;;;;;;;12.29;49.10;101634.84;5087520;28;20419;-69
2023/10/17 10:48:38;;;;;;;2.70;1.00;;;;;;;12.48;47.94;101638.75;5092499;28;20401;-70
2023/10/17 10:51:07;;;;;;;1.80;0.90;;;;;;;12.46;47.16;101636.22;5093692;28;20470;-68
2023/10/17 10:53:39;;;;;;;0.90;0.60;;;;;;;12.78;46.89;101632.06;5093405;28;20473;-68
2023/10/17 10:56:11;;;;;;;1.00;0.60;;;;;;;13.01;47.49;101631.81;5092023;28;20426;-69
2023/10/17 10:58:47;;;;;;;1.10;0.83;;;;;;;13.26;46.34;101619.44;5084173;28;20469;-67
2023/10/17 11:01:18;;;;;;;1.00;0.80;;;;;;;13.28;45.20;101617.34;5088853;28;20498;-66
2023/10/17 11:03:48;;;;;;;1.10;0.67;;;;;;;13.41;46.61;101617.38;5082569;28;20815;-68
2023/10/17 11:06:23;;;;;;;1.20;0.80;;;;;;;13.51;45.70;101618.91;5089053;28;20406;-67
2023/10/17 11:08:55;;;;;;;2.83;0.87;;;;;;;13.59;45.39;101610.56;5087302;28;20418;-68
2023/10/17 11:11:25;;;;;;;1.20;0.90;;;;;;;13.59;46.48;101613.28;5092733;28;20411;-68
2023/10/17 11:13:56;;;;;;;1.40;0.70;;;;;;;13.84;45.82;101611.66;5088059;28;20418;-68
2023/10/17 11:16:26;;;;;;;2.00;1.00;;;;;;;13.88;47.08;101613.78;5094238;28;20422;-69
2023/10/17 11:18:56;;;;;;;2.00;1.20;;;;;;;13.83;47.65;101615.44;5081101;28;20811;-68
2023/10/17 11:21:25;;;;;;;1.10;0.80;;;;;;;13.79;46.37;101615.00;5094984;28;20454;-68
2023/10/17 11:24:00;;;;;;;2.80;0.70;;;;;;;13.77;46.67;101608.09;5088254;28;20433;-66
2023/10/17 11:26:33;;;;;;;1.47;1.17;;;;;;;13.36;47.75;101606.28;5097892;28;20446;-67
2023/10/17 11:29:03;;;;;;;1.40;0.90;;;;;;;13.23;47.96;101608.94;5086508;28;20471;-67
2023/10/17 11:31:33;;;;;;;3.33;1.10;;;;;;;12.96;48.73;101607.13;5087806;28;20420;-68
2023/10/17 11:34:04;;;;;;;2.03;0.80;;;;;;;12.89;50.15;101600.78;5093082;28;20839;-66
2023/10/17 11:36:46;;;;;;;0.93;0.50;;;;;;;13.11;50.08;101598.84;5086598;28;20524;-68
2023/10/17 11:39:16;;;;;;;1.73;0.80;;;;;;;12.95;50.08;101600.00;5088143;28;20485;-66
2023/10/17 11:41:48;;;;;;;1.53;0.70;;;;;;;13.06;50.21;101602.16;5086440;28;20452;-67
2023/10/17 11:44:23;;;;;;;2.97;1.07;;;;;;;12.91;50.02;101596.00;5094174;28;20507;-67
2023/10/17 11:46:58;;;;;;;1.27;0.73;;;;;;;12.95;49.70;101594.56;5067100;28;20445;-67
2023/10/17 11:49:33;;;;;;;1.90;0.80;;;;;;;13.00;49.66;101592.09;5087594;28;20396;-68
2023/10/17 11:52:04;;;;;;;1.90;1.23;;;;;;;12.88;49.46;101588.25;5087102;28;20481;-67
2023/10/17 11:54:53;;;;;;;2.50;0.73;;;;;;;13.08;50.15;101589.19;5086983;28;20422;-68
2023/10/17 11:57:24;;;;;;;2.43;1.57;;;;;;;12.99;49.11;101580.38;5088823;28;20404;-68
2023/10/17 12:00:06;;;;;;;1.23;0.70;;;;;;;12.95;48.50;101584.53;5092885;28;20484;-67
2023/10/17 12:02:41;;;;;;;1.20;0.90;;;;;;;12.93;49.38;101575.72;5083378;28;20950;-68
2023/10/17 12:05:17;;;;;;;1.00;0.80;;;;;;;12.78;48.83;101579.63;5089388;28;20422;-68
2023/10/17 12:07:49;;;;;;;1.10;0.80;;;;;;;12.97;49.22;101576.19;5071308;28;20444;-68
2023/10/17 12:10:20;;;;;;;1.27;0.77;;;;;;;12.88;49.47;101577.38;5093132;28;20407;-69
2023/10/17 12:12:52;;;;;;;1.17;0.70;;;;;;;12.95;49.61;101564.69;5090300;28;20823;-67
2023/10/17 12:15:22;;;;;;;1.77;1.20;;;;;;;13.03;50.47;101576.22;5087464;28;20814;-68
2023/10/17 12:17:50;;;;;;;1.93;0.70;;;;;;;13.00;48.71;101578.50;5092072;28;20770;-68
2023/10/17 12:20:25;;;;;;;1.50;0.70;;;;;;;12.89;48.65;101565.47;5085810;28;20458;-68
2023/10/17 12:22:56;;;;;;;1.80;0.80;;;;;;;12.91;49.09;101571.56;5075974;28;20987;-68
2023/10/17 12:25:27;;;;;;;3.37;0.90;;;;;;;12.99;48.67;101572.22;5089862;28;20505;-67
2023/10/17 12:27:57;;;;;;;1.33;0.80;;;;;;;12.95;49.05;101570.13;5093663;28;20574;-68
2023/10/17 12:30:27;;;;;;;1.10;0.60;;;;;;;12.98;48.84;101567.81;5072289;28;20444;-67
2023/10/17 12:32:57;;;;;;;1.20;0.93;;;;;;;13.25;49.29;101568.81;5087106;28;20452;-67
2023/10/17 12:35:29;;;;;;;1.43;1.13;;;;;;;13.06;48.86;101569.53;5082635;28;20493;-68
2023/10/17 12:37:59;;;;;;;1.10;0.60;;;;;;;12.89;48.65;101568.19;5087333;28;20434;-67
2023/10/17 12:40:33;;;;;;;1.17;0.90;;;;;;;12.99;49.99;101563.22;5087023;28;20809;-67
2023/10/17 12:43:02;;;;;;;0.93;0.63;;;;;;;12.92;49.22;101568.66;5087600;28;20663;-67
2023/10/17 12:45:31;;;;;;;1.10;0.60;;;;;;;12.76;48.92;101562.69;5085453;28;20403;-67
2023/10/17 12:48:00;;;;;;;1.83;1.20;;;;;;;12.55;49.76;101566.31;5086836;28;20429;-68
2023/10/17 12:50:29;;;;;;;0.87;0.50;;;;;;;12.30;50.35;101563.22;5084982;28;20433;-67
2023/10/17 12:52:58;;;;;;;1.30;0.80;;;;;;;12.12;50.82;101554.72;5086448;28;20431;-68
2023/10/17 12:55:28;;;;;;;0.90;0.60;;;;;;;12.28;51.15;101549.03;5085478;28;20429;-66
2023/10/17 12:58:00;;;;;;;1.30;0.70;;;;;;;12.61;50.87;101544.66;5091349;28;20408;-67
2023/10/17 13:00:30;;;;;;;2.40;0.87;;;;;;;12.81;51.45;101538.50;5089430;28;20523;-68
2023/10/17 13:03:00;;;;;;;0.90;0.60;;;;;;;12.78;50.44;101533.47;5089547;28;20477;-67
2023/10/17 13:05:28;;;;;;;0.87;0.57;;;;;;;12.88;50.27;101526.59;5083931;28;20438;-67
2023/10/17 13:07:57;;;;;;;1.33;0.63;;;;;;;12.82;49.75;101532.03;5098675;28;20422;-68
2023/10/17 13:10:26;;;;;;;1.00;0.60;;;;;;;12.63;50.38;101520.84;5087281;28;20400;-67
2023/10/17 13:12:58;;;;;;;3.70;1.20;;;;;;;12.91;50.76;101517.22;5091057;28;20456;-68
2023/10/17 13:15:27;;;;;;;1.30;1.10;;;;;;;13.08;50.53;101524.81;5088710;28;20442;-67
2023/10/17 13:18:00;;;;;;;0.93;0.80;;;;;;;13.09;49.06;101517.50;5095896;28;20431;-66
2023/10/17 13:20:31;;;;;;;0.90;0.67;;;;;;;13.14;49.88;101522.34;5089462;28;20526;-67
2023/10/17 13:23:21;;;;;;;1.23;0.70;;;;;;;12.96;51.10;101521.03;5086910;28;20523;-68
2023/10/17 13:25:50;;;;;;;1.00;0.80;;;;;;;13.02;49.86;101520.19;5090096;28;20790;-67
2023/10/17 13:28:20;;;;;;;1.10;0.80;;;;;;;12.78;50.52;101514.47;5089381;28;20412;-68